createdAt,value
2018-01-25T00:01:23.385Z,78.63
2018-01-25T00:03:51.820Z,78.57
2018-01-25T00:06:20.973Z,78.62
2018-01-25T00:08:49.398Z,78.11
2018-01-25T00:11:18.577Z,77.67
2018-01-25T00:13:46.937Z,77.05
2018-01-25T00:16:15.360Z,76.79
2018-01-25T00:18:44.575Z,76.81
2018-01-25T00:21:13.774Z,76.44
2018-01-25T00:23:42.958Z,76.72
2018-01-25T00:26:12.284Z,77.36
2018-01-25T00:28:40.644Z,77.80
2018-01-25T00:31:09.843Z,78.11
2018-01-25T00:33:39.058Z,77.92
2018-01-25T00:36:07.440Z,77.77
2018-01-25T00:38:35.813Z,77.52
2018-01-25T00:41:04.242Z,77.90
2018-01-25T00:43:32.649Z,78.27
2018-01-25T00:46:01.849Z,78.31
2018-01-25T00:48:30.980Z,78.14
2018-01-25T00:50:59.446Z,78.14
2018-01-25T00:53:27.874Z,77.87
2018-01-25T00:55:56.240Z,77.59
2018-01-25T00:58:24.616Z,77.39
2018-01-25T01:00:53.039Z,76.74
2018-01-25T01:03:22.235Z,76.03
2018-01-25T01:05:51.491Z,75.81
2018-01-25T01:08:19.857Z,76.06
2018-01-25T01:10:48.289Z,76.31
2018-01-25T01:13:16.688Z,76.16
2018-01-25T01:15:45.843Z,76.49
2018-01-25T01:18:14.191Z,76.98
2018-01-25T01:20:42.621Z,77.57
2018-01-25T01:23:11.068Z,77.89
2018-01-25T01:25:39.508Z,77.19
2018-01-25T01:28:07.900Z,76.81
2018-01-25T01:30:36.335Z,76.02
2018-01-25T01:33:04.702Z,75.77
2018-01-25T01:35:33.123Z,75.77
2018-01-25T01:38:01.579Z,75.94
2018-01-25T01:40:29.941Z,76.46
2018-01-25T01:42:58.555Z,76.54
2018-01-25T01:45:27.679Z,76.70
2018-01-25T01:47:56.123Z,76.69
2018-01-25T01:50:25.643Z,76.33
2018-01-25T01:52:54.085Z,76.27
2018-01-25T01:55:22.452Z,76.18
2018-01-25T01:57:50.894Z,76.25
2018-01-25T02:00:19.332Z,76.32
2018-01-25T02:02:47.762Z,76.52
2018-01-25T02:05:16.203Z,76.91
2018-01-25T02:07:44.643Z,77.05
2018-01-25T02:10:13.096Z,77.23
2018-01-25T02:12:41.485Z,77.10
2018-01-25T02:15:09.927Z,77.34
2018-01-25T02:17:38.548Z,77.40
2018-01-25T02:20:06.916Z,77.84
2018-01-25T02:22:36.104Z,77.26
2018-01-25T02:25:05.335Z,77.33
2018-01-25T02:27:33.696Z,77.58
2018-01-25T02:30:02.056Z,77.47
2018-01-25T02:32:31.403Z,78.01
2018-01-25T02:34:59.777Z,78.14
2018-01-25T02:37:28.191Z,78.60
2018-01-25T02:39:56.740Z,78.74
2018-01-25T02:42:25.140Z,78.82
2018-01-25T02:44:53.563Z,79.46
2018-01-25T02:47:21.952Z,79.75
2018-01-25T02:49:50.329Z,80.30
2018-01-25T02:52:18.700Z,80.51
2018-01-25T02:54:47.902Z,80.51
2018-01-25T02:57:16.278Z,80.61
2018-01-25T02:59:45.499Z,80.45
2018-01-25T03:02:13.870Z,80.45
2018-01-25T03:04:42.228Z,80.41
2018-01-25T03:07:11.389Z,80.51
2018-01-25T03:09:39.995Z,80.55
2018-01-25T03:12:09.191Z,80.82
2018-01-25T03:14:38.387Z,80.83
2018-01-25T03:17:07.105Z,81.11
2018-01-25T03:19:35.472Z,81.29
2018-01-25T03:22:04.663Z,81.08
2018-01-25T03:24:33.831Z,80.98
2018-01-25T03:27:02.218Z,80.94
2018-01-25T03:29:30.640Z,81.09
2018-01-25T03:31:59.004Z,81.19
2018-01-25T03:34:28.200Z,81.41
2018-01-25T03:36:56.667Z,81.39
2018-01-25T03:39:25.792Z,81.46
2018-01-25T03:41:54.153Z,81.47
2018-01-25T03:44:23.362Z,81.56
2018-01-25T03:46:51.791Z,81.46
2018-01-25T03:49:20.240Z,81.72
2018-01-25T03:51:48.637Z,81.76
2018-01-25T03:54:17.023Z,82.21
2018-01-25T03:56:45.385Z,82.30
2018-01-25T03:59:13.768Z,82.17
2018-01-25T04:01:42.185Z,81.96
2018-01-25T04:04:10.579Z,81.95
2018-01-25T04:06:39.017Z,81.53
2018-01-25T04:09:07.408Z,81.39
2018-01-25T04:11:35.855Z,81.07
2018-01-25T04:14:04.223Z,80.82
2018-01-25T04:16:32.580Z,80.81
2018-01-25T04:19:01.798Z,80.80
2018-01-25T04:21:30.161Z,80.83
2018-01-25T04:23:59.359Z,80.87
2018-01-25T04:26:28.547Z,80.93
2018-01-25T04:28:56.963Z,80.79
2018-01-25T04:31:25.422Z,80.72
2018-01-25T04:33:53.883Z,80.44
2018-01-25T04:36:23.096Z,80.40
2018-01-25T04:38:52.292Z,80.44
2018-01-25T04:41:21.450Z,80.30
2018-01-25T04:43:49.812Z,80.35
2018-01-25T04:46:18.227Z,80.03
2018-01-25T04:48:46.671Z,79.95
2018-01-25T04:51:15.048Z,79.76
2018-01-25T04:53:43.480Z,79.95
2018-01-25T04:56:12.616Z,80.23
2018-01-25T04:58:40.999Z,80.06
2018-01-25T05:01:09.415Z,80.00
2018-01-25T05:03:37.843Z,80.29
2018-01-25T05:06:06.285Z,80.28
2018-01-25T05:08:34.711Z,80.18
2018-01-25T05:11:03.076Z,79.93
2018-01-25T05:13:32.279Z,80.12
2018-01-25T05:16:00.645Z,80.11
2018-01-25T05:18:29.879Z,80.02
2018-01-25T05:20:58.346Z,80.14
2018-01-25T05:23:26.795Z,80.09
2018-01-25T05:25:55.969Z,79.80
2018-01-25T05:28:24.399Z,79.91
2018-01-25T05:30:52.780Z,79.44
2018-01-25T05:33:21.281Z,79.06
2018-01-25T05:35:49.640Z,78.90
2018-01-25T05:38:18.071Z,78.55
2018-01-25T05:40:46.535Z,78.32
2018-01-25T05:43:14.983Z,78.10
2018-01-25T05:45:43.417Z,78.17
2018-01-25T05:48:11.920Z,78.21
2018-01-25T05:50:41.133Z,78.28
2018-01-25T05:53:09.504Z,78.29
2018-01-25T05:55:38.660Z,78.30
2018-01-25T05:58:07.076Z,78.48
2018-01-25T06:00:36.218Z,78.64
2018-01-25T06:03:04.651Z,79.31
2018-01-25T06:05:33.855Z,79.85
2018-01-25T06:08:02.313Z,80.07
2018-01-25T06:10:30.739Z,81.20
2018-01-25T06:12:59.172Z,82.77
2018-01-25T06:15:27.570Z,85.37
2018-01-25T06:17:55.995Z,86.79
2018-01-25T06:20:24.432Z,87.38
2018-01-25T06:22:53.637Z,87.60
2018-01-25T06:25:22.067Z,88.37
2018-01-25T06:27:50.512Z,88.72
2018-01-25T06:30:18.885Z,89.22
2018-01-25T06:32:47.257Z,89.42
2018-01-25T06:35:16.447Z,89.52
2018-01-25T06:37:44.878Z,90.27
2018-01-25T06:40:13.287Z,90.37
2018-01-25T06:42:41.635Z,90.60
2018-01-25T06:45:10.066Z,90.74
2018-01-25T06:47:38.516Z,91.04
2018-01-25T06:50:06.877Z,90.96
2018-01-25T06:52:35.233Z,90.94
2018-01-25T06:55:03.608Z,90.87
2018-01-25T06:57:32.034Z,91.03
2018-01-25T07:00:00.454Z,91.07
2018-01-25T07:02:28.840Z,91.26
2018-01-25T07:04:57.255Z,90.73
2018-01-25T07:07:25.686Z,90.82
2018-01-25T07:09:54.136Z,90.94
2018-01-25T07:12:22.561Z,90.80
2018-01-25T07:14:50.918Z,90.55
2018-01-25T07:17:19.835Z,90.20
2018-01-25T07:19:48.272Z,90.01
2018-01-25T07:22:17.511Z,90.24
2018-01-25T07:24:45.939Z,90.20
2018-01-25T07:27:14.374Z,92.25
2018-01-25T07:29:42.827Z,89.93
2018-01-25T07:32:11.384Z,88.74
2018-01-25T07:34:39.837Z,89.14
2018-01-25T07:37:08.276Z,89.45
2018-01-25T07:39:37.462Z,89.48
2018-01-25T07:42:05.848Z,89.56
2018-01-25T07:44:35.302Z,89.49
2018-01-25T07:47:03.782Z,89.15
2018-01-25T07:49:32.463Z,89.29
2018-01-25T07:52:00.994Z,89.54
2018-01-25T07:54:30.332Z,89.45
2018-01-25T07:56:58.768Z,89.05
2018-01-25T07:59:27.291Z,89.19
2018-01-25T08:01:55.795Z,88.75
2018-01-25T08:04:24.218Z,89.35
2018-01-25T08:06:52.716Z,89.61
2018-01-25T08:11:55.969Z,89.25
2018-01-25T08:14:24.472Z,89.10
2018-01-25T08:16:53.137Z,89.02
2018-01-25T08:19:21.707Z,89.19
2018-01-25T08:21:50.302Z,89.47
2018-01-25T08:24:18.893Z,89.55
2018-01-25T08:26:47.470Z,89.37
2018-01-25T08:29:16.248Z,89.53
2018-01-25T08:31:44.680Z,89.82
2018-01-25T08:34:13.872Z,90.01
2018-01-25T08:36:43.088Z,90.30
2018-01-25T08:39:11.531Z,90.20
2018-01-25T08:41:39.920Z,90.27
2018-01-25T08:44:08.327Z,90.30
2018-01-25T08:46:36.767Z,90.39
2018-01-25T08:49:05.204Z,89.99
2018-01-25T08:51:33.623Z,89.78
2018-01-25T08:54:02.044Z,89.14
2018-01-25T08:56:30.409Z,88.60
2018-01-25T08:58:59.549Z,86.26
2018-01-25T09:01:27.905Z,85.71
2018-01-25T09:03:56.327Z,83.84
2018-01-25T09:06:24.731Z,84.40
2018-01-25T09:08:53.158Z,83.54
2018-01-25T09:11:21.590Z,82.96
2018-01-25T09:13:49.973Z,81.98
2018-01-25T09:16:18.338Z,82.50
2018-01-25T09:18:46.789Z,82.29
2018-01-25T09:21:15.170Z,81.70
2018-01-25T09:23:43.791Z,81.32
2018-01-25T09:26:12.158Z,80.38
2018-01-25T09:28:40.583Z,80.73
2018-01-25T09:31:09.047Z,80.14
2018-01-25T09:33:38.185Z,80.10
2018-01-25T09:36:06.612Z,80.73
2018-01-25T09:38:35.071Z,81.09
2018-01-25T09:41:05.016Z,80.58
2018-01-25T09:43:34.415Z,81.30
2018-01-25T09:46:03.544Z,80.75
2018-01-25T09:48:31.965Z,79.83
2018-01-25T09:51:00.340Z,79.86
2018-01-25T09:53:28.701Z,79.66
2018-01-25T09:55:57.105Z,79.58
2018-01-25T09:58:25.457Z,79.42
2018-01-25T10:00:53.846Z,79.21
2018-01-25T10:03:22.300Z,79.12
2018-01-25T10:05:50.744Z,79.67
2018-01-25T10:08:19.175Z,79.43
2018-01-25T10:10:47.615Z,79.18
2018-01-25T10:13:16.744Z,78.01
2018-01-25T10:15:45.130Z,77.84
2018-01-25T10:18:13.565Z,77.77
2018-01-25T10:20:42.759Z,77.79
2018-01-25T10:23:11.911Z,78.23
2018-01-25T10:25:40.260Z,78.06
2018-01-25T10:28:09.403Z,78.66
2018-01-25T10:30:37.752Z,78.81
2018-01-25T10:33:06.108Z,78.78
2018-01-25T10:35:35.460Z,77.92
2018-01-25T10:38:03.829Z,77.82
2018-01-25T10:40:32.185Z,78.17
2018-01-25T10:43:00.614Z,77.85
2018-01-25T10:45:29.052Z,77.82
2018-01-25T10:47:57.511Z,78.56
2018-01-25T10:50:25.940Z,78.96
2018-01-25T10:52:54.369Z,79.00
2018-01-25T10:55:23.891Z,78.98
2018-01-25T10:57:52.269Z,78.80
2018-01-25T11:00:20.704Z,79.09
2018-01-25T11:02:49.135Z,79.40
2018-01-25T11:05:17.608Z,79.92
2018-01-25T11:07:45.980Z,80.19
2018-01-25T11:10:14.400Z,87.59
2018-01-25T11:12:42.872Z,79.20
2018-01-25T11:15:11.236Z,79.90
2018-01-25T11:17:39.689Z,80.49
2018-01-25T11:20:08.076Z,79.95
2018-01-25T11:22:37.302Z,80.17
2018-01-25T11:25:05.729Z,80.87
2018-01-25T11:27:34.877Z,80.95
2018-01-25T11:30:03.333Z,81.26
2018-01-25T11:32:31.759Z,80.40
2018-01-25T11:35:00.128Z,80.67
2018-01-25T11:37:28.571Z,80.85
2018-01-25T11:39:57.182Z,81.15
2018-01-25T11:42:25.622Z,80.79
2018-01-25T11:44:54.761Z,80.76
2018-01-25T11:47:23.204Z,81.37
2018-01-25T11:49:51.584Z,81.96
2018-01-25T11:52:20.749Z,81.99
2018-01-25T11:54:49.187Z,82.35
2018-01-25T11:57:17.554Z,82.86
2018-01-25T11:59:45.995Z,83.48
2018-01-25T12:02:14.412Z,83.97
2018-01-25T12:04:42.856Z,84.17
2018-01-25T12:07:11.349Z,84.73
2018-01-25T12:09:40.567Z,84.30
2018-01-25T12:12:08.996Z,83.89
2018-01-25T12:14:37.402Z,84.81
2018-01-25T12:17:06.542Z,85.48
2018-01-25T12:19:34.960Z,85.59
2018-01-25T12:22:03.404Z,86.08
2018-01-25T12:24:31.841Z,85.53
2018-01-25T12:27:01.065Z,85.66
2018-01-25T12:29:29.511Z,86.41
2018-01-25T12:31:57.952Z,87.11
2018-01-25T12:34:26.332Z,86.51
2018-01-25T12:36:54.786Z,86.38
2018-01-25T12:39:23.156Z,86.15
2018-01-25T12:41:51.586Z,85.56
2018-01-25T12:44:20.754Z,84.74
2018-01-25T12:46:49.117Z,83.77
2018-01-25T12:49:18.307Z,83.34
2018-01-25T12:51:46.766Z,83.50
2018-01-25T12:54:15.199Z,83.74
2018-01-25T12:56:43.624Z,84.54
2018-01-25T12:59:12.773Z,84.82
2018-01-25T13:01:41.215Z,84.57
2018-01-25T13:04:09.688Z,86.34
2018-01-25T13:06:38.896Z,86.74
2018-01-25T13:09:08.123Z,86.48
2018-01-25T13:11:36.525Z,87.24
2018-01-25T13:14:04.885Z,86.58
2018-01-25T13:16:33.285Z,86.72
2018-01-25T13:19:01.641Z,86.21
2018-01-25T13:21:30.072Z,85.78
2018-01-25T13:23:58.458Z,85.53
2018-01-25T13:26:26.813Z,86.47
2018-01-25T13:28:55.235Z,86.03
2018-01-25T13:31:23.885Z,86.31
2018-01-25T13:33:52.308Z,86.06
2018-01-25T13:36:20.691Z,86.31
2018-01-25T13:38:49.149Z,86.11
2018-01-25T13:41:18.389Z,86.36
2018-01-25T13:43:46.761Z,86.79
2018-01-25T13:46:15.200Z,87.40
2018-01-25T13:48:43.635Z,88.16
2018-01-25T13:51:12.059Z,87.83
2018-01-25T13:53:40.468Z,87.47
2018-01-25T13:56:08.895Z,87.63
2018-01-25T13:58:37.335Z,88.11
2018-01-25T14:01:05.705Z,88.12
2018-01-25T14:03:34.140Z,88.77
2018-01-25T14:06:02.482Z,88.43
2018-01-25T14:08:30.912Z,88.57
2018-01-25T14:10:59.285Z,88.26
2018-01-25T14:13:27.702Z,88.53
2018-01-25T14:15:56.159Z,88.81
2018-01-25T14:18:25.288Z,88.45
2018-01-25T14:20:53.702Z,88.76
2018-01-25T14:23:22.237Z,88.98
2018-01-25T14:25:51.358Z,89.13
2018-01-25T14:28:19.794Z,89.31
2018-01-25T14:30:48.945Z,89.58
2018-01-25T14:33:17.313Z,89.51
2018-01-25T14:35:45.676Z,89.44
2018-01-25T14:38:14.338Z,89.47
2018-01-25T14:40:43.535Z,89.42
2018-01-25T14:43:12.739Z,89.91
2018-01-25T14:45:41.884Z,90.20
2018-01-25T14:48:10.241Z,90.37
2018-01-25T14:50:38.605Z,90.16
2018-01-25T14:53:06.958Z,89.86
2018-01-25T14:55:36.113Z,90.32
2018-01-25T14:58:04.474Z,90.23
2018-01-25T15:00:32.891Z,90.21
2018-01-25T15:03:01.296Z,90.73
2018-01-25T15:05:29.652Z,90.56
2018-01-25T15:07:58.004Z,91.21
2018-01-25T15:10:26.366Z,91.22
2018-01-25T15:12:54.764Z,91.52
2018-01-25T15:15:23.144Z,91.71
2018-01-25T15:17:51.579Z,91.52
2018-01-25T15:20:20.024Z,91.50
2018-01-25T15:22:48.519Z,91.49
2018-01-25T15:25:22.472Z,92.07
2018-01-25T15:27:50.858Z,91.35
2018-01-25T15:30:19.221Z,90.86
2018-01-25T15:32:47.600Z,90.94
2018-01-25T15:35:16.388Z,90.82
2018-01-25T15:37:44.738Z,90.89
2018-01-25T15:40:13.169Z,90.71
2018-01-25T15:42:41.599Z,90.77
2018-01-25T15:45:09.993Z,90.50
2018-01-25T15:47:39.124Z,90.86
2018-01-25T15:50:07.487Z,90.87
2018-01-25T15:52:35.924Z,90.70
2018-01-25T15:55:04.292Z,90.67
2018-01-25T15:57:32.657Z,90.77
2018-01-25T16:00:01.043Z,90.90
2018-01-25T16:02:29.419Z,90.62
2018-01-25T16:04:57.843Z,90.70
2018-01-25T16:07:26.292Z,90.68
2018-01-25T16:09:54.726Z,90.58
2018-01-25T16:12:23.190Z,90.62
2018-01-25T16:14:51.634Z,90.88
2018-01-25T16:17:20.002Z,91.05
2018-01-25T16:19:48.396Z,90.96
2018-01-25T16:22:16.764Z,90.92
2018-01-25T16:24:45.149Z,90.80
2018-01-25T16:27:13.529Z,90.95
2018-01-25T16:29:41.947Z,90.89
2018-01-25T16:32:10.356Z,91.20
2018-01-25T16:34:38.823Z,91.40
2018-01-25T16:37:07.299Z,91.67
2018-01-25T16:39:35.739Z,91.61
2018-01-25T16:42:04.193Z,91.47
2018-01-25T16:44:32.564Z,91.51
2018-01-25T16:47:00.984Z,91.47
2018-01-25T16:49:30.430Z,91.50
2018-01-25T16:51:58.778Z,91.53
2018-01-25T16:54:27.913Z,91.50
2018-01-25T16:56:56.290Z,91.64
2018-01-25T16:59:24.746Z,91.85
2018-01-25T17:01:53.179Z,91.97
2018-01-25T17:04:21.553Z,92.29
2018-01-25T17:06:49.975Z,92.27
2018-01-25T17:09:19.088Z,92.32
2018-01-25T17:11:47.448Z,92.36
2018-01-25T17:14:16.621Z,92.28
2018-01-25T17:16:45.010Z,92.11
2018-01-25T17:19:13.448Z,92.50
2018-01-25T17:21:41.841Z,92.43
2018-01-25T17:24:10.285Z,92.17
2018-01-25T17:26:38.781Z,92.02
2018-01-25T17:29:08.025Z,91.90
2018-01-25T17:31:36.486Z,91.66
2018-01-25T17:34:04.940Z,91.73
2018-01-25T17:36:33.304Z,91.50
2018-01-25T17:39:01.751Z,91.43
2018-01-25T17:41:30.229Z,91.50
2018-01-25T17:43:59.478Z,91.38
2018-01-25T17:46:27.935Z,91.59
2018-01-25T17:48:56.406Z,91.75
2018-01-25T17:51:25.102Z,91.51
2018-01-25T17:53:53.641Z,91.61
2018-01-25T17:56:22.824Z,91.66
2018-01-25T17:58:51.249Z,91.71
2018-01-25T18:01:20.380Z,91.53
2018-01-25T18:03:48.841Z,91.48
2018-01-25T18:06:17.307Z,90.86
2018-01-25T18:08:45.704Z,91.82
2018-01-25T18:11:14.065Z,92.19
2018-01-25T18:13:43.291Z,92.18
2018-01-25T18:16:11.663Z,91.90
2018-01-25T18:18:40.044Z,92.03
2018-01-25T18:21:08.485Z,91.71
2018-01-25T18:23:37.435Z,91.53
2018-01-25T18:26:05.854Z,90.82
2018-01-25T18:28:34.259Z,90.94
2018-01-25T18:31:03.408Z,91.38
2018-01-25T18:33:31.825Z,91.65
2018-01-25T18:36:00.968Z,92.13
2018-01-25T18:38:29.457Z,92.10
2018-01-25T18:40:57.817Z,92.08
2018-01-25T18:43:26.235Z,92.00
2018-01-25T18:45:54.707Z,91.74
2018-01-25T18:48:23.081Z,91.88
2018-01-25T18:50:52.263Z,92.06
2018-01-25T18:53:20.715Z,91.56
2018-01-25T18:55:49.118Z,91.49
2018-01-25T18:58:17.548Z,91.66
2018-01-25T19:00:46.693Z,91.64
2018-01-25T19:03:15.050Z,90.88
2018-01-25T19:05:43.478Z,90.71
2018-01-25T19:08:11.856Z,89.99
2018-01-25T19:10:40.217Z,89.72
2018-01-25T19:13:08.659Z,89.82
2018-01-25T19:15:37.796Z,89.61
2018-01-25T19:18:06.207Z,89.92
2018-01-25T19:20:34.601Z,89.59
2018-01-25T19:23:02.954Z,89.85
2018-01-25T19:25:31.328Z,89.61
2018-01-25T19:27:59.680Z,89.79
2018-01-25T19:30:28.039Z,89.71
2018-01-25T19:32:56.483Z,89.58
2018-01-25T19:35:24.861Z,89.62
2018-01-25T19:37:53.220Z,89.64
2018-01-25T19:40:21.627Z,90.18
2018-01-25T19:42:49.980Z,90.04
2018-01-25T19:45:18.444Z,89.83
2018-01-25T19:47:46.800Z,89.66
2018-01-25T19:50:15.238Z,89.76
2018-01-25T19:52:43.696Z,90.07
2018-01-25T19:55:13.032Z,90.30
2018-01-25T19:57:42.213Z,89.94
2018-01-25T20:00:10.604Z,89.99
2018-01-25T20:02:38.984Z,89.98
2018-01-25T20:05:08.218Z,89.48
2018-01-25T20:07:36.663Z,89.53
2018-01-25T20:10:05.796Z,89.61
2018-01-25T20:12:34.161Z,89.51
2018-01-25T20:15:02.561Z,89.69
2018-01-25T20:17:30.988Z,89.85
2018-01-25T20:19:59.439Z,90.07
2018-01-25T20:22:27.875Z,90.04
2018-01-25T20:24:57.024Z,90.00
2018-01-25T20:27:25.459Z,89.99
2018-01-25T20:29:53.840Z,90.29
2018-01-25T20:32:23.015Z,90.04
2018-01-25T20:34:52.251Z,90.30
2018-01-25T20:37:20.612Z,89.92
2018-01-25T20:39:49.740Z,90.45
2018-01-25T20:42:18.093Z,90.65
2018-01-25T20:44:46.453Z,90.42
2018-01-25T20:47:15.610Z,90.53
2018-01-25T20:49:44.027Z,90.42
2018-01-25T20:52:12.424Z,90.71
2018-01-25T20:54:40.841Z,90.75
2018-01-25T20:57:09.184Z,90.87
2018-01-25T20:59:37.571Z,91.06
2018-01-25T21:02:05.992Z,91.30
2018-01-25T21:04:34.369Z,91.79
2018-01-25T21:07:02.872Z,91.92
2018-01-25T21:09:31.220Z,92.01
2018-01-25T21:11:59.570Z,92.19
2018-01-25T21:14:28.006Z,92.38
2018-01-25T21:16:57.254Z,92.49
2018-01-25T21:19:25.721Z,92.56
2018-01-25T21:21:54.227Z,92.49
2018-01-25T21:24:22.656Z,92.89
2018-01-25T21:26:51.041Z,92.86
2018-01-25T21:29:19.872Z,92.84
2018-01-25T21:31:48.246Z,92.80
2018-01-25T21:34:16.606Z,92.73
2018-01-25T21:36:45.203Z,92.69
2018-01-25T21:39:13.584Z,92.54
2018-01-25T21:41:42.006Z,92.36
2018-01-25T21:44:10.476Z,92.50
2018-01-25T21:46:38.937Z,92.48
2018-01-25T21:49:07.403Z,92.23
2018-01-25T21:51:35.843Z,92.21
2018-01-25T21:54:04.257Z,92.31
2018-01-25T21:56:32.641Z,92.11
2018-01-25T21:59:01.069Z,92.05
2018-01-25T22:01:29.449Z,91.96
2018-01-25T22:03:57.852Z,91.91
2018-01-25T22:06:27.040Z,92.12
2018-01-25T22:08:56.220Z,92.46
2018-01-25T22:11:25.011Z,92.55
2018-01-25T22:13:53.442Z,92.83
2018-01-25T22:16:21.817Z,92.82
2018-01-25T22:18:50.179Z,92.94
2018-01-25T22:21:19.397Z,92.84
2018-01-25T22:23:47.778Z,92.89
2018-01-25T22:26:16.215Z,92.86
2018-01-25T22:28:45.370Z,92.71
2018-01-25T22:31:13.770Z,92.70
2018-01-25T22:33:42.152Z,92.87
2018-01-25T22:36:10.575Z,92.99
2018-01-25T22:38:39.027Z,93.12
2018-01-25T22:41:07.466Z,93.32
2018-01-25T22:43:35.928Z,93.17
2018-01-25T22:46:04.362Z,93.61
2018-01-25T22:48:32.741Z,93.90
2018-01-25T22:51:01.157Z,94.06
2018-01-25T22:53:30.318Z,94.35
2018-01-25T22:55:58.680Z,94.58
2018-01-25T22:58:27.115Z,94.66
2018-01-25T23:00:55.575Z,94.86
2018-01-25T23:03:24.779Z,95.09
2018-01-25T23:05:53.918Z,95.34
2018-01-25T23:08:22.355Z,95.37
2018-01-25T23:10:50.799Z,95.23
2018-01-25T23:13:19.184Z,95.08
2018-01-25T23:15:47.608Z,94.80
2018-01-25T23:18:16.053Z,94.36
2018-01-25T23:20:44.452Z,94.37
2018-01-25T23:23:12.857Z,94.27
2018-01-25T23:25:41.288Z,94.14
2018-01-25T23:28:09.688Z,94.20
2018-01-25T23:30:38.139Z,94.29
2018-01-25T23:33:06.509Z,94.10
2018-01-25T23:35:34.875Z,93.72
2018-01-25T23:38:03.292Z,93.44
2018-01-25T23:40:31.692Z,93.73
2018-01-25T23:43:00.886Z,93.61
2018-01-25T23:45:30.116Z,93.50
2018-01-25T23:47:58.497Z,93.65
2018-01-25T23:50:26.919Z,93.83
2018-01-25T23:52:55.371Z,93.73
2018-01-25T23:55:23.806Z,93.61
2018-01-25T23:57:52.258Z,93.68
